TAF KRDG
KRDG 280520Z 2806/2906 VRB03KT P6SM OVC040 FM280700 VRB02KT 5SM -SN BR OVC025 FM281000 VRB02KT P6SM OVC040 FM281600 27008KT P6SM OVC040 FM290000 29008KT P6SM BKN250=
METAR KRDG
WC KRDG
WS KRDG
WV KRDG